Time;durP1;ratioP1;P1;durP2;ratioP2;P2;SDS_P1;SDS_P2;PMS_P1;PMS_P2;Temp;Humidity;BMP_temperature;BMP_pressure;BME280_temperature;BME280_humidity;BME280_pressure;Samples;Min_cycle;Max_cycle;Signal;HPM_P1;HPM_P2
2020/12/27 00:01:30;;;;;;;1999.90;999.90;;;6.30;99.90;;;;;;5099041;28;20047;-90
2020/12/27 00:03:57;;;;;;;1999.90;999.90;;;6.30;99.90;;;;;;5101835;28;20075;-91
2020/12/27 00:06:28;;;;;;;1999.90;999.90;;;6.30;99.90;;;;;;5097388;28;20101;-90
2020/12/27 00:08:55;;;;;;;1999.90;999.90;;;6.30;99.90;;;;;;5096513;28;20098;-90
2020/12/27 00:11:22;;;;;;;1999.90;999.90;;;6.30;99.90;;;;;;5096133;28;20087;-91
2020/12/27 00:13:49;;;;;;;1999.90;999.90;;;6.30;99.90;;;;;;5091834;28;20059;-90
2020/12/27 00:16:23;;;;;;;1999.90;999.90;;;6.30;99.90;;;;;;5101236;28;20109;-90
2020/12/27 00:18:50;;;;;;;1999.90;999.90;;;6.30;99.90;;;;;;5097905;28;20047;-90
2020/12/27 00:21:17;;;;;;;1999.90;999.90;;;6.30;99.90;;;;;;5094056;28;20083;-90
2020/12/27 00:23:45;;;;;;;1999.90;999.90;;;6.30;99.90;;;;;;5106751;28;20047;-90
2020/12/27 00:26:12;;;;;;;1999.90;999.90;;;6.30;99.90;;;;;;5096112;28;20052;-90
2020/12/27 00:28:40;;;;;;;1999.90;999.90;;;6.30;99.90;;;;;;5095669;28;20055;-91
2020/12/27 00:31:07;;;;;;;1999.90;999.90;;;6.30;99.90;;;;;;5096253;28;20087;-91
2020/12/27 00:33:36;;;;;;;1999.90;999.90;;;6.20;99.90;;;;;;5096108;28;20044;-92
2020/12/27 00:36:03;;;;;;;1999.90;999.90;;;6.20;99.90;;;;;;5096320;28;20056;-91
2020/12/27 00:38:30;;;;;;;1999.90;999.90;;;6.20;99.90;;;;;;5095443;28;20074;-91
2020/12/27 00:40:57;;;;;;;1999.90;999.90;;;6.20;99.90;;;;;;5102967;28;20571;-91
2020/12/27 00:43:25;;;;;;;1999.90;999.90;;;6.20;99.90;;;;;;5106473;28;20051;-91
2020/12/27 00:45:53;;;;;;;1999.90;999.90;;;6.20;99.90;;;;;;5095024;28;20498;-91
2020/12/27 00:48:21;;;;;;;1999.90;999.90;;;6.20;99.90;;;;;;5091665;28;20076;-92
2020/12/27 00:50:49;;;;;;;1999.90;999.90;;;6.10;99.90;;;;;;5094909;28;20461;-91
2020/12/27 00:53:17;;;;;;;1999.90;999.90;;;6.10;99.90;;;;;;5095292;28;20078;-92
2020/12/27 00:55:49;;;;;;;1999.90;999.90;;;6.10;99.90;;;;;;5095082;28;20076;-91
2020/12/27 00:58:16;;;;;;;1999.90;999.90;;;6.10;99.90;;;;;;5096091;28;20044;-91
2020/12/27 01:00:43;;;;;;;1999.90;999.90;;;6.10;99.90;;;;;;5095955;28;20044;-91
2020/12/27 01:03:10;;;;;;;1999.90;999.90;;;6.00;99.90;;;;;;5095492;28;20094;-91
2020/12/27 01:05:37;;;;;;;1999.90;999.90;;;6.00;99.90;;;;;;5099877;28;20567;-91
2020/12/27 01:08:05;;;;;;;1999.90;999.90;;;6.00;99.90;;;;;;5094331;28;20052;-92
2020/12/27 01:10:32;;;;;;;1999.90;999.90;;;6.00;99.90;;;;;;5104701;28;20479;-91
2020/12/27 01:12:59;;;;;;;1999.90;999.90;;;6.00;99.90;;;;;;5095835;28;20056;-91
2020/12/27 01:15:27;;;;;;;1999.90;999.90;;;6.00;99.90;;;;;;5097482;28;20044;-91
2020/12/27 01:17:54;;;;;;;1999.90;999.90;;;5.90;99.90;;;;;;5098959;28;20098;-91
2020/12/27 01:20:21;;;;;;;1999.90;999.90;;;6.00;99.90;;;;;;5098366;28;20070;-91
2020/12/27 01:22:48;;;;;;;1999.90;999.90;;;5.90;99.90;;;;;;5097312;28;20727;-92
2020/12/27 01:25:17;;;;;;;1999.90;999.90;;;5.90;99.90;;;;;;5096261;28;20052;-92
2020/12/27 01:27:44;;;;;;;1999.90;999.90;;;5.90;99.90;;;;;;5085892;28;20104;-91
2020/12/27 01:30:11;;;;;;;1999.90;999.90;;;5.90;99.90;;;;;;5095390;28;20048;-92
2020/12/27 01:32:38;;;;;;;1999.90;999.90;;;5.90;99.90;;;;;;5098740;28;20058;-92
2020/12/27 01:35:13;;;;;;;1999.90;999.90;;;5.90;99.90;;;;;;5098499;28;20059;-91
2020/12/27 01:37:42;;;;;;;1999.90;999.90;;;5.90;99.90;;;;;;5094550;28;20486;-92
2020/12/27 01:40:12;;;;;;;1999.90;999.90;;;5.90;99.90;;;;;;5093730;28;20056;-92
2020/12/27 01:42:40;;;;;;;1999.90;999.90;;;5.80;99.90;;;;;;5094301;28;20184;-92
2020/12/27 01:45:07;;;;;;;1999.90;999.90;;;5.80;99.90;;;;;;5095194;28;20160;-91
2020/12/27 01:47:35;;;;;;;1999.90;999.90;;;5.80;99.90;;;;;;5094232;28;20083;-91
2020/12/27 01:50:03;;;;;;;1999.90;999.90;;;5.90;99.90;;;;;;5094985;28;20044;-91
2020/12/27 01:52:30;;;;;;;1999.90;999.90;;;5.80;99.90;;;;;;5094093;28;20139;-91
2020/12/27 01:54:57;;;;;;;1999.90;999.90;;;5.80;99.90;;;;;;5093934;28;20074;-91
2020/12/27 01:57:46;;;;;;;1999.90;999.90;;;5.80;99.90;;;;;;5092339;28;20087;-91
2020/12/27 02:00:14;;;;;;;1999.90;999.90;;;5.70;99.90;;;;;;5094360;28;20050;-91
2020/12/27 02:02:42;;;;;;;1999.90;999.90;;;5.70;99.90;;;;;;5094489;28;20117;-91
2020/12/27 02:05:10;;;;;;;1999.90;999.90;;;5.70;99.90;;;;;;5093712;28;20083;-90
2020/12/27 02:07:37;;;;;;;1999.90;999.90;;;5.70;99.90;;;;;;5094136;28;20071;-91
2020/12/27 02:10:05;;;;;;;1999.90;999.90;;;5.70;99.90;;;;;;5103971;28;20075;-91
2020/12/27 02:12:32;;;;;;;1999.90;999.90;;;5.70;99.90;;;;;;5093608;28;20101;-91
2020/12/27 02:14:59;;;;;;;1999.90;999.90;;;5.60;99.90;;;;;;5094628;28;20109;-91
2020/12/27 02:17:27;;;;;;;1999.90;999.90;;;5.70;99.90;;;;;;5095426;28;20051;-91
2020/12/27 02:19:54;;;;;;;1999.90;999.90;;;5.70;99.90;;;;;;5095901;28;20052;-91
2020/12/27 02:22:22;;;;;;;1999.90;999.90;;;5.70;99.90;;;;;;5094152;28;20059;-91
2020/12/27 02:24:50;;;;;;;1999.90;999.90;;;5.70;99.90;;;;;;5093837;28;20072;-91
2020/12/27 02:27:17;;;;;;;1999.90;999.90;;;5.60;99.90;;;;;;5093944;28;20078;-90
2020/12/27 02:29:47;;;;;;;1999.90;999.90;;;5.60;99.90;;;;;;5092706;28;20387;-91
2020/12/27 02:32:15;;;;;;;1999.90;999.90;;;5.60;99.90;;;;;;5093711;28;20082;-90
2020/12/27 02:34:44;;;;;;;1999.90;999.90;;;5.60;99.90;;;;;;5093979;28;20078;-90
2020/12/27 02:37:12;;;;;;;1999.90;999.90;;;5.60;99.90;;;;;;5093589;28;20040;-90
2020/12/27 02:39:39;;;;;;;1999.90;999.90;;;5.60;99.90;;;;;;5092737;28;20063;-90
2020/12/27 02:42:07;;;;;;;1999.90;999.90;;;5.60;99.90;;;;;;5093911;28;20055;-90
2020/12/27 02:47:06;;;;;;;1999.90;999.90;;;5.60;99.90;;;;;;5093902;28;20048;-90
2020/12/27 02:49:33;;;;;;;1999.90;999.90;;;5.60;99.90;;;;;;5093534;28;20068;-91
2020/12/27 02:52:00;;;;;;;1999.90;999.90;;;5.60;99.90;;;;;;5092995;28;20056;-91
2020/12/27 02:54:27;;;;;;;1999.90;999.90;;;5.60;99.90;;;;;;5093986;28;20047;-91
2020/12/27 02:56:54;;;;;;;1999.90;999.90;;;5.60;99.90;;;;;;5093256;28;20048;-90
2020/12/27 02:59:22;;;;;;;1999.90;999.90;;;5.60;99.90;;;;;;5093207;28;20052;-90
2020/12/27 03:01:49;;;;;;;1999.90;999.90;;;5.60;99.90;;;;;;5093370;28;20076;-91
2020/12/27 03:04:16;;;;;;;1999.90;999.90;;;5.60;99.90;;;;;;5093925;28;20076;-90
2020/12/27 03:06:43;;;;;;;1999.90;999.90;;;5.60;99.90;;;;;;5093136;28;20044;-91
2020/12/27 03:09:11;;;;;;;1999.90;999.90;;;5.50;99.90;;;;;;5094897;28;20052;-91
2020/12/27 03:11:38;;;;;;;1999.90;999.90;;;5.60;99.90;;;;;;5094182;28;20102;-91
2020/12/27 03:14:07;;;;;;;1999.90;999.90;;;5.60;99.90;;;;;;5103815;28;20105;-90
2020/12/27 03:16:35;;;;;;;1999.90;999.90;;;5.50;99.90;;;;;;5089339;28;20144;-91
2020/12/27 03:19:02;;;;;;;1999.90;999.90;;;5.60;99.90;;;;;;5092645;28;20072;-91
2020/12/27 03:21:29;;;;;;;1999.90;999.90;;;5.60;99.90;;;;;;5092156;28;20043;-91
2020/12/27 03:23:56;;;;;;;1999.90;999.90;;;5.60;99.90;;;;;;5093443;28;20109;-91
2020/12/27 03:26:24;;;;;;;1999.90;999.90;;;5.60;99.90;;;;;;5092899;28;20048;-91
2020/12/27 03:28:51;;;;;;;1999.90;999.90;;;5.50;99.90;;;;;;5085453;28;20842;-90
2020/12/27 03:31:18;;;;;;;1999.90;999.90;;;5.50;99.90;;;;;;5093307;28;20059;-91
2020/12/27 03:33:46;;;;;;;1999.90;999.90;;;5.50;99.90;;;;;;5093559;28;20075;-91
2020/12/27 03:36:14;;;;;;;1999.90;999.90;;;5.50;99.90;;;;;;5093341;28;20090;-92
2020/12/27 03:38:41;;;;;;;1999.90;999.90;;;5.50;99.90;;;;;;5093423;28;20070;-91
2020/12/27 03:41:08;;;;;;;1999.90;999.90;;;5.50;99.90;;;;;;5094638;28;20047;-91
2020/12/27 03:43:35;;;;;;;1999.90;999.90;;;5.50;99.90;;;;;;5093182;28;20113;-91
2020/12/27 03:46:02;;;;;;;1999.90;999.90;;;5.40;99.90;;;;;;5093013;28;20143;-91
2020/12/27 03:48:29;;;;;;;1999.90;999.90;;;5.50;99.90;;;;;;5092593;28;20398;-91
2020/12/27 03:50:58;;;;;;;1999.90;999.90;;;5.50;99.90;;;;;;5093194;28;20070;-91
2020/12/27 03:53:25;;;;;;;1999.90;999.90;;;5.50;99.90;;;;;;5082154;28;20101;-92
2020/12/27 03:55:52;;;;;;;1999.90;999.90;;;5.50;99.90;;;;;;5094958;28;20083;-90
2020/12/27 03:58:19;;;;;;;1999.90;999.90;;;5.60;99.90;;;;;;5096828;28;20466;-91
2020/12/27 04:00:46;;;;;;;1999.90;999.90;;;5.50;99.90;;;;;;5096754;28;20123;-92
2020/12/27 04:03:13;;;;;;;1999.90;999.90;;;5.60;99.90;;;;;;5096652;28;20062;-91
2020/12/27 04:05:41;;;;;;;1999.90;999.90;;;5.50;99.90;;;;;;5096743;28;20044;-91
2020/12/27 04:08:09;;;;;;;1999.90;999.90;;;5.50;99.90;;;;;;5097119;28;20815;-92
2020/12/27 04:10:36;;;;;;;1999.90;999.90;;;5.50;99.90;;;;;;5096290;28;20060;-91
2020/12/27 04:13:03;;;;;;;1999.90;999.90;;;5.50;99.90;;;;;;5096705;28;20070;-91
2020/12/27 04:15:30;;;;;;;1999.90;999.90;;;5.50;99.90;;;;;;5099997;28;20478;-92
2020/12/27 04:17:57;;;;;;;1999.90;999.90;;;5.40;99.90;;;;;;5106852;28;20055;-91
2020/12/27 04:20:24;;;;;;;1999.90;999.90;;;5.40;99.90;;;;;;5096610;28;20098;-91
2020/12/27 04:22:51;;;;;;;1999.90;999.90;;;5.40;99.90;;;;;;5096773;28;20079;-91
2020/12/27 04:25:19;;;;;;;1999.90;999.90;;;5.40;99.90;;;;;;5096029;28;20047;-91
2020/12/27 04:27:47;;;;;;;1999.90;999.90;;;5.40;99.90;;;;;;5096469;28;20207;-91
2020/12/27 04:30:14;;;;;;;1999.90;999.90;;;5.40;99.90;;;;;;5095366;28;20052;-91
2020/12/27 04:32:41;;;;;;;1999.90;999.90;;;5.40;99.90;;;;;;5097625;28;20135;-91
2020/12/27 04:35:08;;;;;;;1999.90;999.90;;;5.40;99.90;;;;;;5106274;28;20082;-91
2020/12/27 04:37:35;;;;;;;1999.90;999.90;;;5.40;99.90;;;;;;5099738;28;20047;-91
2020/12/27 04:40:03;;;;;;;1999.90;999.90;;;5.40;99.90;;;;;;5099285;28;20087;-90
2020/12/27 04:42:31;;;;;;;1999.90;999.90;;;5.40;99.90;;;;;;5096643;28;20064;-89
2020/12/27 04:45:00;;;;;;;1999.90;999.90;;;5.40;99.90;;;;;;5094166;28;20064;-90
2020/12/27 04:47:27;;;;;;;1999.90;999.90;;;5.40;99.90;;;;;;5095328;28;20098;-90
2020/12/27 04:49:54;;;;;;;1999.90;999.90;;;5.40;99.90;;;;;;5095773;28;20094;-90
2020/12/27 04:52:22;;;;;;;1999.90;999.90;;;5.40;99.90;;;;;;5097285;28;20060;-90
2020/12/27 04:54:50;;;;;;;1999.90;999.90;;;5.40;99.90;;;;;;5096018;28;20269;-88
2020/12/27 04:57:18;;;;;;;1999.90;999.90;;;5.40;99.90;;;;;;5085276;28;20125;-90
2020/12/27 04:59:49;;;;;;;1999.90;999.90;;;5.50;99.90;;;;;;5095576;28;20474;-90
2020/12/27 05:02:16;;;;;;;1999.90;999.90;;;5.50;99.90;;;;;;5100902;28;20059;-89
2020/12/27 05:04:45;;;;;;;1999.90;999.90;;;5.50;99.90;;;;;;5102971;28;20578;-89
2020/12/27 05:07:18;;;;;;;1999.90;999.90;;;5.50;99.90;;;;;;5095463;28;20048;-89
2020/12/27 05:09:45;;;;;;;1999.90;999.90;;;5.40;99.90;;;;;;5096975;28;20044;-89
2020/12/27 05:12:12;;;;;;;1999.90;999.90;;;5.40;99.90;;;;;;5095621;28;20106;-89
2020/12/27 05:14:40;;;;;;;1999.90;999.90;;;5.50;99.90;;;;;;5097409;28;20131;-89
2020/12/27 05:17:08;;;;;;;1999.90;999.90;;;5.50;99.90;;;;;;5095057;28;20452;-89
2020/12/27 05:19:35;;;;;;;1999.90;999.90;;;5.50;99.90;;;;;;5095396;28;20134;-89
2020/12/27 05:22:09;;;;;;;1999.90;999.90;;;5.50;99.90;;;;;;5091842;28;20402;-89
2020/12/27 05:24:38;;;;;;;1999.90;999.90;;;5.50;99.90;;;;;;5104272;28;20097;-89
2020/12/27 05:27:07;;;;;;;1999.90;999.90;;;5.50;99.90;;;;;;5100200;28;20494;-90
2020/12/27 05:29:36;;;;;;;1999.90;999.90;;;5.50;99.90;;;;;;5092471;28;20808;-89
2020/12/27 05:32:04;;;;;;;1999.90;999.90;;;5.50;99.90;;;;;;5087448;28;20077;-89
2020/12/27 05:34:32;;;;;;;1999.90;999.90;;;5.60;99.90;;;;;;5095543;28;20056;-88
2020/12/27 05:37:02;;;;;;;1999.90;999.90;;;5.60;99.90;;;;;;5095369;28;20428;-89
2020/12/27 05:39:30;;;;;;;1999.90;999.90;;;5.60;99.90;;;;;;5100433;28;20076;-89
2020/12/27 05:42:00;;;;;;;1999.90;999.90;;;5.50;99.90;;;;;;5095011;28;20071;-89
2020/12/27 05:44:27;;;;;;;1999.90;999.90;;;5.50;99.90;;;;;;5095144;28;20109;-89
2020/12/27 05:46:56;;;;;;;1999.90;999.90;;;5.60;99.90;;;;;;5099557;28;20127;-90
2020/12/27 05:49:24;;;;;;;1999.90;999.90;;;5.50;99.90;;;;;;5094840;28;20422;-90
2020/12/27 05:51:54;;;;;;;1999.90;999.90;;;5.60;99.90;;;;;;5094571;28;20094;-90
2020/12/27 05:54:31;;;;;;;1999.90;999.90;;;5.60;99.90;;;;;;5095270;28;20473;-89
2020/12/27 05:56:59;;;;;;;1999.90;999.90;;;5.50;99.90;;;;;;5094924;28;20067;-89
2020/12/27 05:59:31;;;;;;;1999.90;999.90;;;5.60;99.90;;;;;;5095094;28;20816;-89
2020/12/27 06:02:00;;;;;;;1999.90;999.90;;;5.60;99.90;;;;;;5094482;28;20966;-90
2020/12/27 06:04:57;;;;;;;1999.90;999.90;;;5.60;99.90;;;;;;5094718;28;20056;-89
2020/12/27 06:07:37;;;;;;;1999.90;999.90;;;5.60;99.90;;;;;;5093633;28;20052;-90
2020/12/27 06:10:12;;;;;;;1999.90;999.90;;;5.60;99.90;;;;;;5094515;28;20090;-90
2020/12/27 06:12:52;;;;;;;1999.90;999.90;;;5.60;99.90;;;;;;5081409;28;20052;-90
2020/12/27 06:15:25;;;;;;;1999.90;999.90;;;5.60;99.90;;;;;;5095236;28;20458;-90
2020/12/27 06:18:18;;;;;;;1999.90;999.90;;;5.60;99.90;;;;;;5095850;28;20075;-90
2020/12/27 06:20:45;;;;;;;1999.90;999.90;;;5.60;99.90;;;;;;5080140;28;20052;-90
2020/12/27 06:23:14;;;;;;;1999.90;999.90;;;5.60;99.90;;;;;;5094633;28;20044;-90
2020/12/27 06:25:41;;;;;;;1999.90;999.90;;;5.60;99.90;;;;;;5094350;28;20055;-89
2020/12/27 06:28:08;;;;;;;1999.90;999.90;;;5.60;99.90;;;;;;5095010;28;20052;-89
2020/12/27 06:30:41;;;;;;;1999.90;999.90;;;5.60;99.90;;;;;;5095168;28;20048;-89
2020/12/27 06:33:13;;;;;;;1999.90;999.90;;;5.60;99.90;;;;;;5097998;28;20178;-90
2020/12/27 06:35:44;;;;;;;1999.90;999.90;;;5.60;99.90;;;;;;5102987;28;20526;-90
2020/12/27 06:38:17;;;;;;;1999.90;999.90;;;5.60;99.90;;;;;;5096726;28;20567;-90
2020/12/27 06:40:46;;;;;;;1999.90;999.90;;;5.60;99.90;;;;;;5093599;28;20055;-90
2020/12/27 06:43:15;;;;;;;1999.90;999.90;;;5.60;99.90;;;;;;5090458;28;20075;-91
2020/12/27 06:45:43;;;;;;;1999.90;999.90;;;5.60;99.90;;;;;;5101259;28;20043;-90
2020/12/27 06:48:10;;;;;;;1999.90;999.90;;;5.60;99.90;;;;;;5094001;28;20134;-91
2020/12/27 06:50:45;;;;;;;1999.90;999.90;;;5.60;99.90;;;;;;5103220;28;20105;-91
2020/12/27 06:53:41;;;;;;;1999.90;999.90;;;5.60;99.90;;;;;;5094308;28;20063;-90
2020/12/27 06:56:10;;;;;;;1999.90;999.90;;;5.60;99.90;;;;;;5094101;28;20059;-90
2020/12/27 06:58:38;;;;;;;1999.90;999.90;;;5.50;99.90;;;;;;5091036;28;20056;-91
2020/12/27 07:01:17;;;;;;;1999.90;999.90;;;5.50;99.90;;;;;;5093532;28;20115;-91
2020/12/27 07:03:45;;;;;;;1999.90;999.90;;;5.50;99.90;;;;;;5090033;28;20130;-90
2020/12/27 07:06:22;;;;;;;1999.90;999.90;;;5.50;99.90;;;;;;5093619;28;20126;-91
2020/12/27 07:09:05;;;;;;;1999.90;999.90;;;5.50;99.90;;;;;;5090776;28;20067;-90
2020/12/27 07:11:33;;;;;;;1999.90;999.90;;;5.60;99.90;;;;;;5093619;28;20439;-91
2020/12/27 07:14:02;;;;;;;1999.90;999.90;;;5.50;99.90;;;;;;5092282;28;20138;-91
2020/12/27 07:16:42;;;;;;;1999.90;999.90;;;5.50;99.90;;;;;;5093387;28;20827;-90
2020/12/27 07:19:15;;;;;;;1999.90;999.90;;;5.60;99.90;;;;;;5093002;28;20050;-91
2020/12/27 07:21:45;;;;;;;1999.90;999.90;;;5.60;99.90;;;;;;5092233;28;20071;-91
2020/12/27 07:24:22;;;;;;;1999.90;999.90;;;5.60;99.90;;;;;;5091986;28;20062;-90
2020/12/27 07:26:49;;;;;;;1999.90;999.90;;;5.60;99.90;;;;;;5093633;28;20498;-91
2020/12/27 07:29:21;;;;;;;1999.90;999.90;;;5.60;99.90;;;;;;5094262;28;20051;-91
2020/12/27 07:31:51;;;;;;;1999.90;999.90;;;5.60;99.90;;;;;;5085008;28;20098;-92
2020/12/27 07:34:24;;;;;;;1999.90;999.90;;;5.60;99.90;;;;;;5097755;28;20155;-93
2020/12/27 07:37:02;;;;;;;1999.90;999.90;;;5.60;99.90;;;;;;5101270;28;20052;-93
2020/12/27 07:39:50;;;;;;;1999.90;999.90;;;5.60;99.90;;;;;;5098338;28;20136;-93
2020/12/27 07:42:22;;;;;;;1999.90;999.90;;;5.60;99.90;;;;;;5098387;28;20056;-94
2020/12/27 07:44:49;;;;;;;1999.90;999.90;;;5.60;99.90;;;;;;5093775;28;20059;-94
2020/12/27 07:47:16;;;;;;;1999.90;999.90;;;5.60;99.90;;;;;;5098474;28;20052;-93
2020/12/27 07:49:44;;;;;;;1999.90;999.90;;;5.70;99.90;;;;;;5102109;28;20051;-94
2020/12/27 07:52:11;;;;;;;1999.90;999.90;;;5.60;99.90;;;;;;5098444;28;20056;-94
2020/12/27 07:54:41;;;;;;;1999.90;999.90;;;5.60;99.90;;;;;;5098240;28;20123;-94
2020/12/27 07:57:12;;;;;;;1999.90;999.90;;;5.60;99.90;;;;;;5112563;28;20060;-94
2020/12/27 07:59:39;;;;;;;1999.90;999.90;;;5.70;99.90;;;;;;5097993;28;20051;-94
2020/12/27 08:02:06;;;;;;;1999.90;999.90;;;5.60;99.90;;;;;;5083620;28;20057;-95
2020/12/27 08:04:37;;;;;;;1999.90;999.90;;;5.70;99.90;;;;;;5100061;28;20067;-95
2020/12/27 08:07:07;;;;;;;1999.90;999.90;;;5.60;99.90;;;;;;5098368;28;20052;-95
2020/12/27 08:09:37;;;;;;;1999.90;999.90;;;5.60;99.90;;;;;;5095177;28;20459;-95
2020/12/27 08:12:05;;;;;;;1999.90;999.90;;;5.60;99.90;;;;;;5106660;28;20051;-94
2020/12/27 08:14:34;;;;;;;1999.90;999.90;;;5.60;99.90;;;;;;5103870;28;20075;-96
2020/12/27 08:17:01;;;;;;;1999.90;999.90;;;5.60;99.90;;;;;;5097910;28;20119;-94
2020/12/27 08:19:28;;;;;;;1999.90;999.90;;;5.60;99.90;;;;;;5097345;28;20040;-94
2020/12/27 08:22:00;;;;;;;1999.90;999.90;;;5.60;99.90;;;;;;5097369;28;20089;-94
2020/12/27 08:24:27;;;;;;;1999.90;999.90;;;5.60;99.90;;;;;;5095398;28;20087;-93
2020/12/27 08:26:55;;;;;;;1999.90;999.90;;;5.60;99.90;;;;;;5099232;28;20052;-94
2020/12/27 08:29:24;;;;;;;1999.90;999.90;;;5.60;99.90;;;;;;5101596;28;20044;-93
2020/12/27 08:31:57;;;;;;;1999.90;999.90;;;5.60;99.90;;;;;;5087225;28;20436;-94
2020/12/27 08:34:25;;;;;;;1999.90;999.90;;;5.60;99.90;;;;;;5087676;28;20106;-94
2020/12/27 08:36:53;;;;;;;1999.90;999.90;;;5.60;99.90;;;;;;5085498;28;20487;-94
2020/12/27 08:39:24;;;;;;;1999.90;999.90;;;5.60;99.90;;;;;;5088683;28;20076;-93
2020/12/27 08:42:04;;;;;;;1999.90;999.90;;;5.70;99.90;;;;;;5091519;28;20398;-95
2020/12/27 08:44:41;;;;;;;1999.90;999.90;;;5.70;99.90;;;;;;5097959;28;20139;-94
2020/12/27 08:47:17;;;;;;;1999.90;999.90;;;5.60;99.90;;;;;;5077093;28;20241;-94
2020/12/27 08:49:54;;;;;;;1999.90;999.90;;;5.70;99.90;;;;;;5092530;28;20043;-94
2020/12/27 08:52:24;;;;;;;1999.90;999.90;;;5.70;99.90;;;;;;5096911;28;20495;-95
2020/12/27 08:54:55;;;;;;;1999.90;999.90;;;5.70;99.90;;;;;;5112944;28;20108;-95
2020/12/27 08:57:23;;;;;;;1999.90;999.90;;;5.70;99.90;;;;;;5117115;28;20543;-95
2020/12/27 09:00:04;;;;;;;1999.90;999.90;;;5.70;99.90;;;;;;5116432;28;20444;-94
2020/12/27 09:02:32;;;;;;;1999.90;999.90;;;5.70;99.90;;;;;;5085237;28;20097;-96
2020/12/27 09:05:10;;;;;;;1999.90;999.90;;;5.70;99.90;;;;;;5111938;28;20143;-93
2020/12/27 09:07:39;;;;;;;1999.90;999.90;;;5.70;99.90;;;;;;5093038;28;20059;-94
2020/12/27 09:10:24;;;;;;;1999.90;999.90;;;5.70;99.90;;;;;;5094581;28;20044;-94
2020/12/27 09:12:59;;;;;;;1999.90;999.90;;;5.70;99.90;;;;;;5084459;28;20483;-94
2020/12/27 09:15:28;;;;;;;1999.90;999.90;;;5.70;99.90;;;;;;5096231;28;20072;-96
2020/12/27 09:18:01;;;;;;;1999.90;999.90;;;5.70;99.90;;;;;;5097581;28;20102;-94
2020/12/27 09:20:29;;;;;;;1999.90;999.90;;;5.70;99.90;;;;;;5098053;28;20101;-95
2020/12/27 09:22:57;;;;;;;1999.90;999.90;;;5.60;99.90;;;;;;5089223;28;20045;-93
2020/12/27 09:25:25;;;;;;;1999.90;999.90;;;5.60;99.90;;;;;;5090969;28;20109;-94
2020/12/27 09:27:55;;;;;;;1999.90;999.90;;;5.60;99.90;;;;;;5092400;28;20056;-94
2020/12/27 09:30:23;;;;;;;1999.90;999.90;;;5.60;99.90;;;;;;5095484;28;20048;-93
2020/12/27 09:32:59;;;;;;;1999.90;999.90;;;5.60;99.90;;;;;;5095720;28;20044;-94
2020/12/27 09:35:27;;;;;;;1999.90;999.90;;;5.70;99.90;;;;;;5111066;28;20048;-94
2020/12/27 09:37:54;;;;;;;1999.90;999.90;;;5.70;99.90;;;;;;5109674;28;20071;-93
2020/12/27 09:40:34;;;;;;;1999.90;999.90;;;5.70;99.90;;;;;;5096690;28;20048;-95
2020/12/27 09:43:05;;;;;;;1999.90;999.90;;;5.60;99.90;;;;;;5096811;28;20135;-94
2020/12/27 09:45:39;;;;;;;1999.90;999.90;;;5.60;99.90;;;;;;5092516;28;20406;-94
2020/12/27 09:48:06;;;;;;;1999.90;999.90;;;5.60;99.90;;;;;;5093382;28;20052;-94
2020/12/27 09:50:36;;;;;;;1999.90;999.90;;;5.70;99.90;;;;;;5103933;28;20058;-94
2020/12/27 09:53:04;;;;;;;1999.90;999.90;;;5.60;99.90;;;;;;5099462;28;20452;-92
2020/12/27 09:55:34;;;;;;;1999.90;999.90;;;5.60;99.90;;;;;;5096058;28;20063;-93
2020/12/27 09:58:01;;;;;;;1999.90;999.90;;;5.70;99.90;;;;;;5095375;28;20048;-93
2020/12/27 10:00:29;;;;;;;1999.90;999.90;;;5.70;99.90;;;;;;5082538;28;20063;-93
2020/12/27 10:02:56;;;;;;;1999.90;999.90;;;5.70;99.90;;;;;;5098321;28;20097;-93
2020/12/27 10:05:23;;;;;;;1999.90;999.90;;;5.70;99.90;;;;;;5102047;28;20059;-93
2020/12/27 10:07:51;;;;;;;1999.90;999.90;;;5.70;99.90;;;;;;5109303;28;20048;-95
2020/12/27 10:10:18;;;;;;;1999.90;999.90;;;5.80;99.90;;;;;;5100864;28;20086;-93
2020/12/27 10:12:45;;;;;;;1999.90;999.90;;;5.80;99.90;;;;;;5094328;28;20052;-92
2020/12/27 10:15:13;;;;;;;1999.90;999.90;;;5.80;99.90;;;;;;5094424;28;20509;-92
2020/12/27 10:17:40;;;;;;;1999.90;999.90;;;5.70;99.90;;;;;;5096926;28;20509;-92
2020/12/27 10:20:10;;;;;;;1999.90;999.90;;;5.70;99.90;;;;;;5086205;28;20040;-92
2020/12/27 10:22:40;;;;;;;1999.90;999.90;;;5.80;99.90;;;;;;5099919;28;20040;-91
2020/12/27 10:25:09;;;;;;;1999.90;999.90;;;5.70;99.90;;;;;;5101409;28;20062;-92
2020/12/27 10:27:36;;;;;;;1999.90;999.90;;;5.80;99.90;;;;;;5075207;28;20445;-93
2020/12/27 10:30:07;;;;;;;1999.90;999.90;;;5.80;99.90;;;;;;5086788;28;20066;-93
2020/12/27 10:32:37;;;;;;;1999.90;999.90;;;5.80;99.90;;;;;;5095063;28;20437;-93
2020/12/27 10:35:04;;;;;;;1999.90;999.90;;;5.70;99.90;;;;;;5100924;28;20075;-93
2020/12/27 10:37:31;;;;;;;1999.90;999.90;;;5.70;99.90;;;;;;5094022;28;20079;-93
2020/12/27 10:39:59;;;;;;;1999.90;999.90;;;5.80;99.90;;;;;;5090389;28;20055;-92
2020/12/27 10:42:27;;;;;;;1999.90;999.90;;;5.80;99.90;;;;;;5098960;28;20043;-92
2020/12/27 10:44:54;;;;;;;1999.90;999.90;;;5.80;99.90;;;;;;5094587;28;20071;-92
2020/12/27 10:47:21;;;;;;;1999.90;999.90;;;5.90;99.90;;;;;;5099307;28;20059;-92
2020/12/27 10:50:00;;;;;;;1999.90;999.90;;;5.80;99.90;;;;;;5089718;28;20145;-92
2020/12/27 10:52:27;;;;;;;1999.90;999.90;;;5.80;99.90;;;;;;5094982;28;20384;-93
2020/12/27 10:54:54;;;;;;;1999.90;999.90;;;5.80;99.90;;;;;;5094465;28;20180;-93
2020/12/27 10:57:21;;;;;;;1999.90;999.90;;;5.80;99.90;;;;;;5094486;28;20063;-93
2020/12/27 10:59:53;;;;;;;1999.90;999.90;;;5.80;99.90;;;;;;5094473;28;20112;-92
2020/12/27 11:02:20;;;;;;;1999.90;999.90;;;5.90;99.90;;;;;;5097177;28;20131;-93
2020/12/27 11:04:47;;;;;;;1999.90;999.90;;;5.90;99.90;;;;;;5094198;28;20483;-93
2020/12/27 11:07:31;;;;;;;1999.90;999.90;;;5.90;99.90;;;;;;5087993;28;20068;-93
2020/12/27 11:09:59;;;;;;;1999.90;999.90;;;5.80;99.90;;;;;;5097839;28;20094;-93
2020/12/27 11:12:26;;;;;;;1999.90;999.90;;;5.80;99.90;;;;;;5094500;28;20051;-93
2020/12/27 11:15:14;;;;;;;1999.90;999.90;;;5.90;99.90;;;;;;5087646;28;20048;-92
2020/12/27 11:17:42;;;;;;;1999.90;999.90;;;5.90;99.90;;;;;;5096271;28;20066;-93
2020/12/27 11:20:13;;;;;;;1999.90;999.90;;;5.90;99.90;;;;;;5091845;28;20048;-89
2020/12/27 11:22:41;;;;;;;1999.90;999.90;;;5.90;99.90;;;;;;5092181;28;20052;-89
2020/12/27 11:25:10;;;;;;;1999.90;999.90;;;5.90;99.90;;;;;;5102900;28;20118;-89
2020/12/27 11:27:37;;;;;;;1999.90;999.90;;;5.90;99.90;;;;;;5100506;28;20083;-89
2020/12/27 11:30:05;;;;;;;1999.90;999.90;;;6.00;99.90;;;;;;5097469;28;20039;-89
2020/12/27 11:32:32;;;;;;;1999.90;999.90;;;6.00;99.90;;;;;;5094883;28;20135;-89
2020/12/27 11:34:59;;;;;;;1999.90;999.90;;;6.00;99.90;;;;;;5095067;28;20079;-94
2020/12/27 11:37:37;;;;;;;1999.90;999.90;;;6.00;99.90;;;;;;5096621;28;20137;-92
2020/12/27 11:40:04;;;;;;;1999.90;999.90;;;6.00;99.90;;;;;;5094938;28;20044;-93
2020/12/27 11:42:32;;;;;;;1999.90;999.90;;;6.00;99.90;;;;;;5102842;28;20075;-94
2020/12/27 11:44:59;;;;;;;1999.90;999.90;;;6.00;99.90;;;;;;5090535;28;20063;-94
2020/12/27 11:47:27;;;;;;;1999.90;999.90;;;6.00;99.90;;;;;;5097727;28;20097;-94
2020/12/27 11:49:55;;;;;;;1999.90;999.90;;;6.00;99.90;;;;;;5096160;28;20071;-93
2020/12/27 11:52:24;;;;;;;1999.90;999.90;;;6.10;99.90;;;;;;5096967;28;20056;-90
2020/12/27 11:55:01;;;;;;;1999.90;999.90;;;6.00;99.90;;;;;;5092411;28;20110;-89
2020/12/27 11:57:29;;;;;;;1999.90;999.90;;;6.10;99.90;;;;;;5096990;28;20097;-90
2020/12/27 11:59:59;;;;;;;1999.90;999.90;;;6.10;99.90;;;;;;5096140;28;20048;-90
2020/12/27 12:02:27;;;;;;;1999.90;999.90;;;6.10;99.90;;;;;;5102835;28;20056;-90
2020/12/27 12:04:55;;;;;;;1999.90;999.90;;;6.10;99.90;;;;;;5086489;28;20072;-89
2020/12/27 12:07:22;;;;;;;1999.90;999.90;;;6.10;99.90;;;;;;5092853;28;20076;-90
2020/12/27 12:09:54;;;;;;;1999.90;999.90;;;6.10;99.90;;;;;;5093391;28;20055;-91
2020/12/27 12:12:21;;;;;;;1999.90;999.90;;;6.00;99.90;;;;;;5092217;28;20490;-91
2020/12/27 12:14:48;;;;;;;1999.90;999.90;;;6.10;99.90;;;;;;5085848;28;20072;-90
2020/12/27 12:17:16;;;;;;;1999.90;999.90;;;6.10;99.90;;;;;;5095008;28;20498;-90
2020/12/27 12:19:44;;;;;;;1999.90;999.90;;;6.10;99.90;;;;;;5094948;28;20486;-90
2020/12/27 12:22:15;;;;;;;1999.90;999.90;;;6.10;99.90;;;;;;5105096;28;20537;-90